sensor_id;sensor_type;location;lat;lon;timestamp;P1;durP1;ratioP1;P2;durP2;ratioP2
16139;SDS011;8175;49.326;12.690;2023-09-18T06:18:22;4.87;;;4.47;;
16139;SDS011;8175;49.326;12.690;2023-09-18T06:20:48;5.53;;;4.70;;
16139;SDS011;8175;49.326;12.690;2023-09-18T06:23:15;4.40;;;4.10;;
16139;SDS011;8175;49.326;12.690;2023-09-18T06:25:40;4.63;;;3.70;;
16139;SDS011;8175;49.326;12.690;2023-09-18T06:28:06;4.47;;;4.07;;
16139;SDS011;8175;49.326;12.690;2023-09-18T06:30:32;3.97;;;3.67;;
16139;SDS011;8175;49.326;12.690;2023-09-18T06:32:59;3.63;;;3.33;;
16139;SDS011;8175;49.326;12.690;2023-09-18T06:35:25;3.97;;;3.67;;
16139;SDS011;8175;49.326;12.690;2023-09-18T06:37:51;4.07;;;3.77;;
16139;SDS011;8175;49.326;12.690;2023-09-18T06:40:17;4.20;;;3.80;;
16139;SDS011;8175;49.326;12.690;2023-09-18T06:42:43;3.90;;;3.60;;
16139;SDS011;8175;49.326;12.690;2023-09-18T06:45:09;4.10;;;3.67;;
16139;SDS011;8175;49.326;12.690;2023-09-18T06:47:35;3.50;;;3.20;;
16139;SDS011;8175;49.326;12.690;2023-09-18T06:50:00;6.07;;;3.60;;
16139;SDS011;8175;49.326;12.690;2023-09-18T06:52:27;3.40;;;3.10;;
16139;SDS011;8175;49.326;12.690;2023-09-18T06:54:53;3.43;;;3.20;;
16139;SDS011;8175;49.326;12.690;2023-09-18T06:57:19;3.00;;;2.73;;
16139;SDS011;8175;49.326;12.690;2023-09-18T06:59:46;2.93;;;2.73;;
16139;SDS011;8175;49.326;12.690;2023-09-18T07:02:12;2.87;;;2.60;;
16139;SDS011;8175;49.326;12.690;2023-09-18T07:04:40;2.80;;;2.60;;
16139;SDS011;8175;49.326;12.690;2023-09-18T07:07:10;2.83;;;2.63;;
16139;SDS011;8175;49.326;12.690;2023-09-18T07:09:37;3.90;;;2.90;;
16139;SDS011;8175;49.326;12.690;2023-09-18T07:12:03;2.80;;;2.60;;
16139;SDS011;8175;49.326;12.690;2023-09-18T07:14:29;2.73;;;2.53;;
16139;SDS011;8175;49.326;12.690;2023-09-18T07:16:56;2.83;;;2.63;;
16139;SDS011;8175;49.326;12.690;2023-09-18T07:19:21;2.70;;;2.50;;
16139;SDS011;8175;49.326;12.690;2023-09-18T07:21:47;2.87;;;2.67;;
16139;SDS011;8175;49.326;12.690;2023-09-18T07:24:13;2.80;;;2.60;;
16139;SDS011;8175;49.326;12.690;2023-09-18T07:26:42;2.42;;;2.25;;
16139;SDS011;8175;49.326;12.690;2023-09-18T07:29:10;2.97;;;2.78;;
16139;SDS011;8175;49.326;12.690;2023-09-18T07:31:35;3.05;;;2.85;;
16139;SDS011;8175;49.326;12.690;2023-09-18T07:34:01;3.42;;;2.63;;
16139;SDS011;8175;49.326;12.690;2023-09-18T07:36:29;2.70;;;2.50;;
16139;SDS011;8175;49.326;12.690;2023-09-18T07:38:55;2.90;;;2.70;;
16139;SDS011;8175;49.326;12.690;2023-09-18T07:41:21;3.33;;;3.03;;
16139;SDS011;8175;49.326;12.690;2023-09-18T07:43:47;3.75;;;3.38;;
16139;SDS011;8175;49.326;12.690;2023-09-18T07:46:13;3.63;;;3.33;;
16139;SDS011;8175;49.326;12.690;2023-09-18T07:48:38;3.88;;;3.47;;
16139;SDS011;8175;49.326;12.690;2023-09-18T07:51:04;3.53;;;3.08;;
16139;SDS011;8175;49.326;12.690;2023-09-18T07:53:30;2.95;;;2.75;;
16139;SDS011;8175;49.326;12.690;2023-09-18T07:55:57;3.65;;;3.42;;
16139;SDS011;8175;49.326;12.690;2023-09-18T07:58:24;3.45;;;2.90;;
16139;SDS011;8175;49.326;12.690;2023-09-18T08:00:53;3.40;;;3.10;;
16139;SDS011;8175;49.326;12.690;2023-09-18T08:03:27;3.30;;;3.10;;
16139;SDS011;8175;49.326;12.690;2023-09-18T08:05:53;4.07;;;3.67;;
16139;SDS011;8175;49.326;12.690;2023-09-18T08:08:19;3.50;;;3.28;;
16139;SDS011;8175;49.326;12.690;2023-09-18T08:10:46;3.28;;;2.97;;
16139;SDS011;8175;49.326;12.690;2023-09-18T08:13:12;2.85;;;2.65;;
16139;SDS011;8175;49.326;12.690;2023-09-18T08:15:38;3.65;;;3.25;;
16139;SDS011;8175;49.326;12.690;2023-09-18T08:18:04;3.53;;;2.70;;
16139;SDS011;8175;49.326;12.690;2023-09-18T08:20:30;3.25;;;2.95;;
16139;SDS011;8175;49.326;12.690;2023-09-18T08:22:55;3.05;;;2.85;;
16139;SDS011;8175;49.326;12.690;2023-09-18T08:25:21;3.17;;;2.97;;
16139;SDS011;8175;49.326;12.690;2023-09-18T08:27:47;2.95;;;2.75;;
16139;SDS011;8175;49.326;12.690;2023-09-18T08:30:14;3.30;;;3.00;;
16139;SDS011;8175;49.326;12.690;2023-09-18T08:32:40;2.65;;;2.45;;
16139;SDS011;8175;49.326;12.690;2023-09-18T08:35:07;2.90;;;2.70;;
16139;SDS011;8175;49.326;12.690;2023-09-18T08:37:33;2.92;;;2.72;;
16139;SDS011;8175;49.326;12.690;2023-09-18T08:39:59;2.88;;;2.67;;
16139;SDS011;8175;49.326;12.690;2023-09-18T08:42:34;2.80;;;2.60;;
16139;SDS011;8175;49.326;12.690;2023-09-18T08:45:01;2.80;;;2.60;;
16139;SDS011;8175;49.326;12.690;2023-09-18T08:47:29;3.05;;;2.80;;
16139;SDS011;8175;49.326;12.690;2023-09-18T08:49:55;2.50;;;2.25;;
16139;SDS011;8175;49.326;12.690;2023-09-18T08:52:24;3.42;;;3.15;;
16139;SDS011;8175;49.326;12.690;2023-09-18T08:54:51;4.80;;;2.92;;
16139;SDS011;8175;49.326;12.690;2023-09-18T08:57:17;2.90;;;2.70;;
16139;SDS011;8175;49.326;12.690;2023-09-18T08:59:43;3.33;;;3.10;;
16139;SDS011;8175;49.326;12.690;2023-09-18T09:02:09;3.35;;;3.10;;
16139;SDS011;8175;49.326;12.690;2023-09-18T09:04:37;3.95;;;3.42;;
16139;SDS011;8175;49.326;12.690;2023-09-18T09:07:03;2.97;;;2.55;;
16139;SDS011;8175;49.326;12.690;2023-09-18T09:09:29;3.17;;;2.80;;
16139;SDS011;8175;49.326;12.690;2023-09-18T09:11:56;3.17;;;2.80;;
16139;SDS011;8175;49.326;12.690;2023-09-18T09:14:22;2.67;;;2.47;;
16139;SDS011;8175;49.326;12.690;2023-09-18T09:16:53;3.50;;;2.60;;
16139;SDS011;8175;49.326;12.690;2023-09-18T09:19:30;3.28;;;2.97;;
16139;SDS011;8175;49.326;12.690;2023-09-18T09:21:56;3.15;;;2.85;;
16139;SDS011;8175;49.326;12.690;2023-09-18T09:24:36;2.83;;;2.63;;
16139;SDS011;8175;49.326;12.690;2023-09-18T09:27:05;2.78;;;2.58;;
16139;SDS011;8175;49.326;12.690;2023-09-18T09:29:31;2.70;;;2.50;;
16139;SDS011;8175;49.326;12.690;2023-09-18T09:31:56;3.17;;;2.45;;
16139;SDS011;8175;49.326;12.690;2023-09-18T09:34:41;4.95;;;3.03;;
16139;SDS011;8175;49.326;12.690;2023-09-18T09:37:08;2.88;;;2.60;;
16139;SDS011;8175;49.326;12.690;2023-09-18T09:39:34;2.55;;;2.35;;
16139;SDS011;8175;49.326;12.690;2023-09-18T09:42:00;2.60;;;2.45;;
16139;SDS011;8175;49.326;12.690;2023-09-18T09:44:29;2.50;;;2.30;;
16139;SDS011;8175;49.326;12.690;2023-09-18T09:46:57;5.20;;;2.85;;
16139;SDS011;8175;49.326;12.690;2023-09-18T09:49:24;3.88;;;2.67;;
16139;SDS011;8175;49.326;12.690;2023-09-18T09:51:53;2.90;;;2.70;;
16139;SDS011;8175;49.326;12.690;2023-09-18T09:54:40;2.20;;;2.10;;
16139;SDS011;8175;49.326;12.690;2023-09-18T09:57:06;2.28;;;2.15;;
16139;SDS011;8175;49.326;12.690;2023-09-18T09:59:31;2.80;;;2.60;;
16139;SDS011;8175;49.326;12.690;2023-09-18T10:02:00;3.78;;;2.70;;
16139;SDS011;8175;49.326;12.690;2023-09-18T10:04:28;2.67;;;2.47;;
16139;SDS011;8175;49.326;12.690;2023-09-18T10:06:58;3.28;;;2.97;;
16139;SDS011;8175;49.326;12.690;2023-09-18T10:09:28;2.90;;;2.60;;
16139;SDS011;8175;49.326;12.690;2023-09-18T10:11:54;2.95;;;2.67;;
16139;SDS011;8175;49.326;12.690;2023-09-18T10:14:31;3.05;;;2.70;;
16139;SDS011;8175;49.326;12.690;2023-09-18T10:17:12;3.70;;;2.90;;
16139;SDS011;8175;49.326;12.690;2023-09-18T10:19:54;2.95;;;2.40;;
16139;SDS011;8175;49.326;12.690;2023-09-18T10:22:37;2.78;;;2.53;;
16139;SDS011;8175;49.326;12.690;2023-09-18T10:25:11;3.95;;;2.60;;
16139;SDS011;8175;49.326;12.690;2023-09-18T10:27:42;3.05;;;2.70;;
16139;SDS011;8175;49.326;12.690;2023-09-18T10:30:14;3.05;;;2.85;;
16139;SDS011;8175;49.326;12.690;2023-09-18T10:32:45;3.15;;;2.72;;
16139;SDS011;8175;49.326;12.690;2023-09-18T10:35:11;3.30;;;2.65;;
16139;SDS011;8175;49.326;12.690;2023-09-18T10:37:43;2.92;;;2.65;;
16139;SDS011;8175;49.326;12.690;2023-09-18T10:40:11;2.90;;;2.70;;
16139;SDS011;8175;49.326;12.690;2023-09-18T10:42:39;3.42;;;3.13;;
16139;SDS011;8175;49.326;12.690;2023-09-18T10:45:09;3.70;;;2.80;;
16139;SDS011;8175;49.326;12.690;2023-09-18T10:47:37;2.90;;;2.70;;
16139;SDS011;8175;49.326;12.690;2023-09-18T10:50:05;3.03;;;2.83;;
16139;SDS011;8175;49.326;12.690;2023-09-18T10:52:35;2.92;;;2.22;;
16139;SDS011;8175;49.326;12.690;2023-09-18T10:55:01;2.80;;;2.58;;
16139;SDS011;8175;49.326;12.690;2023-09-18T10:57:33;3.35;;;2.70;;
16139;SDS011;8175;49.326;12.690;2023-09-18T11:00:04;2.80;;;2.60;;
16139;SDS011;8175;49.326;12.690;2023-09-18T11:02:39;3.40;;;2.58;;
16139;SDS011;8175;49.326;12.690;2023-09-18T11:05:05;3.17;;;2.88;;
16139;SDS011;8175;49.326;12.690;2023-09-18T11:07:31;5.43;;;2.50;;
16139;SDS011;8175;49.326;12.690;2023-09-18T11:09:57;2.63;;;2.42;;
16139;SDS011;8175;49.326;12.690;2023-09-18T11:12:23;4.53;;;2.97;;
16139;SDS011;8175;49.326;12.690;2023-09-18T11:15:08;3.60;;;3.30;;
16139;SDS011;8175;49.326;12.690;2023-09-18T11:17:38;3.10;;;2.80;;
16139;SDS011;8175;49.326;12.690;2023-09-18T11:22:55;3.25;;;2.72;;
16139;SDS011;8175;49.326;12.690;2023-09-18T11:25:37;3.25;;;2.83;;
16139;SDS011;8175;49.326;12.690;2023-09-18T11:28:06;4.47;;;2.88;;
16139;SDS011;8175;49.326;12.690;2023-09-18T11:30:37;4.38;;;2.88;;
16139;SDS011;8175;49.326;12.690;2023-09-18T11:33:04;5.32;;;3.10;;
16139;SDS011;8175;49.326;12.690;2023-09-18T11:35:34;6.18;;;2.72;;
16139;SDS011;8175;49.326;12.690;2023-09-18T11:38:04;4.57;;;2.78;;
16139;SDS011;8175;49.326;12.690;2023-09-18T11:40:36;9.80;;;3.78;;
16139;SDS011;8175;49.326;12.690;2023-09-18T11:45:59;3.08;;;2.50;;
16139;SDS011;8175;49.326;12.690;2023-09-18T11:48:29;4.22;;;2.85;;
16139;SDS011;8175;49.326;12.690;2023-09-18T11:50:57;7.05;;;3.10;;
16139;SDS011;8175;49.326;12.690;2023-09-18T11:53:24;3.80;;;2.90;;
16139;SDS011;8175;49.326;12.690;2023-09-18T11:55:52;6.80;;;3.03;;
16139;SDS011;8175;49.326;12.690;2023-09-18T11:58:19;9.48;;;3.50;;
16139;SDS011;8175;49.326;12.690;2023-09-18T12:00:51;7.55;;;2.97;;
16139;SDS011;8175;49.326;12.690;2023-09-18T12:03:22;8.00;;;2.75;;
16139;SDS011;8175;49.326;12.690;2023-09-18T12:06:01;4.45;;;2.70;;
16139;SDS011;8175;49.326;12.690;2023-09-18T12:08:30;4.93;;;2.95;;
16139;SDS011;8175;49.326;12.690;2023-09-18T12:10:57;3.42;;;2.80;;
16139;SDS011;8175;49.326;12.690;2023-09-18T12:13:26;4.43;;;2.65;;
16139;SDS011;8175;49.326;12.690;2023-09-18T12:15:56;7.22;;;3.03;;
16139;SDS011;8175;49.326;12.690;2023-09-18T12:18:24;4.97;;;3.20;;
16139;SDS011;8175;49.326;12.690;2023-09-18T12:20:50;4.45;;;3.10;;
16139;SDS011;8175;49.326;12.690;2023-09-18T12:23:16;6.57;;;3.35;;
16139;SDS011;8175;49.326;12.690;2023-09-18T12:25:46;10.25;;;3.38;;
16139;SDS011;8175;49.326;12.690;2023-09-18T12:28:14;10.00;;;3.50;;
16139;SDS011;8175;49.326;12.690;2023-09-18T12:30:41;4.88;;;3.50;;
16139;SDS011;8175;49.326;12.690;2023-09-18T12:33:11;6.18;;;3.25;;
16139;SDS011;8175;49.326;12.690;2023-09-18T12:35:40;5.43;;;3.40;;
16139;SDS011;8175;49.326;12.690;2023-09-18T12:38:13;3.85;;;3.10;;
16139;SDS011;8175;49.326;12.690;2023-09-18T12:40:40;6.28;;;3.17;;
16139;SDS011;8175;49.326;12.690;2023-09-18T12:43:05;8.80;;;3.85;;
16139;SDS011;8175;49.326;12.690;2023-09-18T12:45:32;13.07;;;3.45;;
16139;SDS011;8175;49.326;12.690;2023-09-18T12:47:59;5.05;;;3.33;;
16139;SDS011;8175;49.326;12.690;2023-09-18T12:50:25;3.72;;;2.97;;
16139;SDS011;8175;49.326;12.690;2023-09-18T12:52:51;6.93;;;3.38;;
16139;SDS011;8175;49.326;12.690;2023-09-18T12:55:20;7.82;;;3.55;;
16139;SDS011;8175;49.326;12.690;2023-09-18T12:57:50;7.07;;;3.85;;
16139;SDS011;8175;49.326;12.690;2023-09-18T13:00:18;6.85;;;3.50;;
16139;SDS011;8175;49.326;12.690;2023-09-18T13:02:46;6.97;;;3.40;;
16139;SDS011;8175;49.326;12.690;2023-09-18T13:05:12;6.03;;;3.30;;
16139;SDS011;8175;49.326;12.690;2023-09-18T13:07:45;5.18;;;3.80;;
16139;SDS011;8175;49.326;12.690;2023-09-18T13:10:12;6.10;;;3.45;;
16139;SDS011;8175;49.326;12.690;2023-09-18T13:12:46;7.47;;;3.90;;
16139;SDS011;8175;49.326;12.690;2023-09-18T13:15:14;6.50;;;3.20;;
16139;SDS011;8175;49.326;12.690;2023-09-18T13:17:56;5.47;;;3.60;;
16139;SDS011;8175;49.326;12.690;2023-09-18T13:20:29;5.55;;;3.20;;
16139;SDS011;8175;49.326;12.690;2023-09-18T13:22:56;8.07;;;3.47;;
16139;SDS011;8175;49.326;12.690;2023-09-18T13:25:25;5.32;;;3.00;;
16139;SDS011;8175;49.326;12.690;2023-09-18T13:27:53;6.70;;;3.90;;
16139;SDS011;8175;49.326;12.690;2023-09-18T13:30:19;7.18;;;4.25;;
16139;SDS011;8175;49.326;12.690;2023-09-18T13:32:47;4.65;;;3.35;;
16139;SDS011;8175;49.326;12.690;2023-09-18T13:35:17;8.13;;;4.32;;
16139;SDS011;8175;49.326;12.690;2023-09-18T13:37:44;6.57;;;3.55;;
16139;SDS011;8175;49.326;12.690;2023-09-18T13:40:10;3.90;;;3.33;;
16139;SDS011;8175;49.326;12.690;2023-09-18T13:42:39;8.15;;;3.05;;
16139;SDS011;8175;49.326;12.690;2023-09-18T13:45:06;5.57;;;3.10;;
16139;SDS011;8175;49.326;12.690;2023-09-18T13:47:35;2.85;;;2.50;;
16139;SDS011;8175;49.326;12.690;2023-09-18T13:50:02;3.70;;;2.85;;
16139;SDS011;8175;49.326;12.690;2023-09-18T13:52:29;5.45;;;2.95;;
16139;SDS011;8175;49.326;12.690;2023-09-18T13:54:56;6.15;;;3.20;;
16139;SDS011;8175;49.326;12.690;2023-09-18T13:57:22;5.20;;;3.40;;
16139;SDS011;8175;49.326;12.690;2023-09-18T13:59:48;6.10;;;2.85;;
16139;SDS011;8175;49.326;12.690;2023-09-18T14:02:15;5.03;;;2.58;;
16139;SDS011;8175;49.326;12.690;2023-09-18T14:04:41;5.55;;;3.28;;
16139;SDS011;8175;49.326;12.690;2023-09-18T14:07:08;6.35;;;2.80;;
16139;SDS011;8175;49.326;12.690;2023-09-18T14:09:34;3.88;;;3.33;;
16139;SDS011;8175;49.326;12.690;2023-09-18T14:12:01;4.38;;;3.03;;
16139;SDS011;8175;49.326;12.690;2023-09-18T14:14:27;5.85;;;3.30;;
16139;SDS011;8175;49.326;12.690;2023-09-18T14:16:53;6.93;;;3.10;;
16139;SDS011;8175;49.326;12.690;2023-09-18T14:19:19;6.78;;;3.00;;
16139;SDS011;8175;49.326;12.690;2023-09-18T14:21:45;6.50;;;2.45;;
16139;SDS011;8175;49.326;12.690;2023-09-18T14:24:11;9.35;;;3.17;;
16139;SDS011;8175;49.326;12.690;2023-09-18T14:26:37;8.07;;;3.13;;
16139;SDS011;8175;49.326;12.690;2023-09-18T14:29:09;9.23;;;3.73;;
16139;SDS011;8175;49.326;12.690;2023-09-18T14:31:38;8.17;;;3.87;;
16139;SDS011;8175;49.326;12.690;2023-09-18T14:34:05;9.13;;;3.90;;
16139;SDS011;8175;49.326;12.690;2023-09-18T14:36:31;4.60;;;3.27;;
16139;SDS011;8175;49.326;12.690;2023-09-18T14:38:59;5.80;;;3.77;;
16139;SDS011;8175;49.326;12.690;2023-09-18T14:41:25;8.27;;;3.83;;
16139;SDS011;8175;49.326;12.690;2023-09-18T14:43:51;6.03;;;3.73;;
16139;SDS011;8175;49.326;12.690;2023-09-18T14:46:17;8.07;;;4.30;;
16139;SDS011;8175;49.326;12.690;2023-09-18T14:48:43;6.90;;;2.70;;
16139;SDS011;8175;49.326;12.690;2023-09-18T14:51:09;5.27;;;2.60;;
16139;SDS011;8175;49.326;12.690;2023-09-18T14:53:34;4.53;;;2.53;;
16139;SDS011;8175;49.326;12.690;2023-09-18T14:56:00;3.73;;;2.20;;
16139;SDS011;8175;49.326;12.690;2023-09-18T14:58:26;4.67;;;2.10;;
16139;SDS011;8175;49.326;12.690;2023-09-18T15:00:53;3.13;;;2.00;;
16139;SDS011;8175;49.326;12.690;2023-09-18T15:03:19;4.13;;;2.57;;
16139;SDS011;8175;49.326;12.690;2023-09-18T15:05:44;5.10;;;1.70;;
16139;SDS011;8175;49.326;12.690;2023-09-18T15:08:10;2.80;;;2.10;;
16139;SDS011;8175;49.326;12.690;2023-09-18T15:10:36;3.87;;;1.90;;
16139;SDS011;8175;49.326;12.690;2023-09-18T15:13:02;3.83;;;1.80;;
16139;SDS011;8175;49.326;12.690;2023-09-18T15:15:28;2.47;;;1.70;;
16139;SDS011;8175;49.326;12.690;2023-09-18T15:17:54;3.27;;;1.53;;
16139;SDS011;8175;49.326;12.690;2023-09-18T15:20:20;2.70;;;1.40;;
16139;SDS011;8175;49.326;12.690;2023-09-18T15:22:49;2.17;;;1.50;;
16139;SDS011;8175;49.326;12.690;2023-09-18T15:25:15;3.50;;;1.63;;
16139;SDS011;8175;49.326;12.690;2023-09-18T15:27:41;3.20;;;1.70;;
16139;SDS011;8175;49.326;12.690;2023-09-18T15:30:07;3.03;;;1.77;;
16139;SDS011;8175;49.326;12.690;2023-09-18T15:32:49;2.03;;;1.53;;
16139;SDS011;8175;49.326;12.690;2023-09-18T15:35:18;2.57;;;1.73;;
16139;SDS011;8175;49.326;12.690;2023-09-18T15:37:44;2.47;;;1.70;;
16139;SDS011;8175;49.326;12.690;2023-09-18T15:40:10;3.17;;;2.07;;
16139;SDS011;8175;49.326;12.690;2023-09-18T15:42:38;2.67;;;1.90;;
16139;SDS011;8175;49.326;12.690;2023-09-18T15:45:08;3.00;;;1.70;;
16139;SDS011;8175;49.326;12.690;2023-09-18T15:47:36;3.47;;;2.27;;
16139;SDS011;8175;49.326;12.690;2023-09-18T15:50:02;3.03;;;1.30;;
16139;SDS011;8175;49.326;12.690;2023-09-18T15:52:30;2.03;;;1.40;;
16139;SDS011;8175;49.326;12.690;2023-09-18T15:54:55;2.20;;;1.47;;
16139;SDS011;8175;49.326;12.690;2023-09-18T15:57:21;3.10;;;1.50;;
16139;SDS011;8175;49.326;12.690;2023-09-18T15:59:47;2.17;;;1.37;;
16139;SDS011;8175;49.326;12.690;2023-09-18T16:02:13;2.07;;;1.30;;
16139;SDS011;8175;49.326;12.690;2023-09-18T16:04:39;4.23;;;1.40;;
16139;SDS011;8175;49.326;12.690;2023-09-18T16:07:05;3.63;;;1.50;;
16139;SDS011;8175;49.326;12.690;2023-09-18T16:09:31;1.53;;;1.30;;
16139;SDS011;8175;49.326;12.690;2023-09-18T16:11:57;3.60;;;1.20;;
16139;SDS011;8175;49.326;12.690;2023-09-18T16:14:23;3.33;;;1.93;;
16139;SDS011;8175;49.326;12.690;2023-09-18T16:16:48;2.03;;;1.10;;
16139;SDS011;8175;49.326;12.690;2023-09-18T16:19:14;1.63;;;1.30;;
16139;SDS011;8175;49.326;12.690;2023-09-18T16:21:40;2.10;;;1.53;;
16139;SDS011;8175;49.326;12.690;2023-09-18T16:24:05;2.40;;;1.70;;
16139;SDS011;8175;49.326;12.690;2023-09-18T16:26:32;2.57;;;1.33;;
16139;SDS011;8175;49.326;12.690;2023-09-18T16:28:58;3.03;;;1.47;;
16139;SDS011;8175;49.326;12.690;2023-09-18T16:31:24;2.13;;;1.60;;
16139;SDS011;8175;49.326;12.690;2023-09-18T16:33:54;3.77;;;1.40;;
16139;SDS011;8175;49.326;12.690;2023-09-18T16:36:19;3.60;;;1.37;;
16139;SDS011;8175;49.326;12.690;2023-09-18T16:38:45;3.03;;;1.50;;
16139;SDS011;8175;49.326;12.690;2023-09-18T16:41:11;1.90;;;1.50;;
16139;SDS011;8175;49.326;12.690;2023-09-18T16:43:36;2.30;;;1.40;;
16139;SDS011;8175;49.326;12.690;2023-09-18T16:46:05;3.87;;;1.40;;
16139;SDS011;8175;49.326;12.690;2023-09-18T16:48:31;1.50;;;1.23;;
16139;SDS011;8175;49.326;12.690;2023-09-18T16:50:57;2.67;;;1.47;;
16139;SDS011;8175;49.326;12.690;2023-09-18T16:53:24;2.43;;;1.70;;
16139;SDS011;8175;49.326;12.690;2023-09-18T16:55:51;2.97;;;1.50;;
16139;SDS011;8175;49.326;12.690;2023-09-18T16:58:16;3.37;;;1.87;;
16139;SDS011;8175;49.326;12.690;2023-09-18T17:00:42;3.40;;;2.77;;
16139;SDS011;8175;49.326;12.690;2023-09-18T17:03:08;2.53;;;1.97;;
16139;SDS011;8175;49.326;12.690;2023-09-18T17:05:34;1.80;;;1.60;;
16139;SDS011;8175;49.326;12.690;2023-09-18T17:08:00;2.83;;;1.47;;
16139;SDS011;8175;49.326;12.690;2023-09-18T17:10:27;3.17;;;1.73;;
16139;SDS011;8175;49.326;12.690;2023-09-18T17:12:53;2.07;;;1.67;;
16139;SDS011;8175;49.326;12.690;2023-09-18T17:15:19;4.63;;;2.20;;
16139;SDS011;8175;49.326;12.690;2023-09-18T17:17:45;3.70;;;1.80;;
16139;SDS011;8175;49.326;12.690;2023-09-18T17:20:10;2.37;;;2.00;;
16139;SDS011;8175;49.326;12.690;2023-09-18T17:22:36;2.53;;;1.53;;
16139;SDS011;8175;49.326;12.690;2023-09-18T17:25:02;2.13;;;1.90;;
16139;SDS011;8175;49.326;12.690;2023-09-18T17:27:32;2.57;;;1.30;;
16139;SDS011;8175;49.326;12.690;2023-09-18T17:29:58;2.37;;;1.40;;
16139;SDS011;8175;49.326;12.690;2023-09-18T17:32:25;1.33;;;1.13;;
16139;SDS011;8175;49.326;12.690;2023-09-18T17:34:51;2.03;;;1.60;;
16139;SDS011;8175;49.326;12.690;2023-09-18T17:37:18;2.43;;;1.33;;
16139;SDS011;8175;49.326;12.690;2023-09-18T17:39:44;3.63;;;2.57;;
16139;SDS011;8175;49.326;12.690;2023-09-18T17:42:10;2.40;;;1.27;;
16139;SDS011;8175;49.326;12.690;2023-09-18T17:44:36;1.43;;;1.30;;
16139;SDS011;8175;49.326;12.690;2023-09-18T17:47:02;1.93;;;1.40;;
16139;SDS011;8175;49.326;12.690;2023-09-18T17:49:28;1.43;;;1.27;;
16139;SDS011;8175;49.326;12.690;2023-09-18T17:51:53;1.63;;;1.40;;
16139;SDS011;8175;49.326;12.690;2023-09-18T17:54:19;1.50;;;1.20;;
16139;SDS011;8175;49.326;12.690;2023-09-18T17:56:46;2.53;;;1.30;;
16139;SDS011;8175;49.326;12.690;2023-09-18T17:59:12;1.53;;;1.10;;
16139;SDS011;8175;49.326;12.690;2023-09-18T18:01:37;1.10;;;1.00;;
16139;SDS011;8175;49.326;12.690;2023-09-18T18:04:03;1.97;;;1.30;;
16139;SDS011;8175;49.326;12.690;2023-09-18T18:06:30;1.53;;;1.30;;
16139;SDS011;8175;49.326;12.690;2023-09-18T18:08:57;1.23;;;1.10;;
16139;SDS011;8175;49.326;12.690;2023-09-18T18:11:24;1.30;;;1.20;;
16139;SDS011;8175;49.326;12.690;2023-09-18T18:13:50;1.83;;;1.17;;
16139;SDS011;8175;49.326;12.690;2023-09-18T18:16:16;1.30;;;1.00;;
16139;SDS011;8175;49.326;12.690;2023-09-18T18:18:42;2.80;;;1.40;;
16139;SDS011;8175;49.326;12.690;2023-09-18T18:21:09;1.60;;;1.40;;
16139;SDS011;8175;49.326;12.690;2023-09-18T18:23:35;2.53;;;1.23;;
16139;SDS011;8175;49.326;12.690;2023-09-18T18:26:02;2.60;;;1.37;;
